首页
METAR-TAF:

METAR-TAF

机场 :

迪拜国际机场

杜拜, 阿拉伯联合酋长国

纬度: 25-15-10N, 经度: 055-21-52E, 海拔: 8米

当前天气观测

该预报发布于7分钟前的08:00 UTC
风速9节,风向西,在西转西北之间变化
温度 37°C
湿度 35%
气压 1000 hPa
能见度10公里或以上
1500米以下无云,无积雨云

METAR: OMDB 230800Z 27009KT 180V300 CAVOK 37/19 Q1000 NOSIG

时间: 12:07 (08:07 UTC)

预报

该预报发布于3小时和1分钟前的05:06 UTC
预报有效从23日的 06点(UTC)到 24日的 12点(UTC)
风速8节,风向西南
能見度: 8000
成为
从 23日的 06点(UTC)到 23日的 08点(UTC)
风速13节,风向西
成为
从 23日的 17点(UTC)到 23日的 19点(UTC)
风速5节,风向西南
几率 30%
从 24日的 01点(UTC)到 24日的 04点(UTC)
能見度: 4000
成为
从 24日的 05点(UTC)到 24日的 07点(UTC)
风速12节,风向西

TAF: OMDB 230506Z 2306/2412 22008KT 8000 NSC BECMG 2306/2308 28013KT BECMG 2317/2319 22005KT PROB30 2401/2404 4000 HZ BECMG 2405/2407 28012KT

超过4000个机场的气象观测和天气预报(METAR&TAF报告)。

可查询的气象台以黄色和红色小点在地图上表示。

将鼠标移到小点上方,可查看气象台名称。

然后点击查看天气观测和预报。

如需切换地图:点击带黑十字的绿色按钮放大地图;点击带横线的绿色按钮缩小地图;或者点击绿色箭头查看邻近地区的地图。


METAR-TAF: